createdAt,value
2022-12-14T00:02:40.589Z,10.90
2022-12-14T00:05:28.357Z,13.93
2022-12-14T00:08:16.868Z,11.97
2022-12-14T00:11:03.223Z,13.23
2022-12-14T00:13:55.009Z,14.20
2022-12-14T00:16:41.340Z,12.87
2022-12-14T00:19:27.573Z,12.47
2022-12-14T00:22:14.001Z,10.33
2022-12-14T00:25:00.214Z,12.57
2022-12-14T00:27:47.055Z,10.63
2022-12-14T00:30:33.405Z,11.03
2022-12-14T00:33:19.625Z,12.17
2022-12-14T00:36:07.806Z,15.63
2022-12-14T00:38:54.340Z,11.80
2022-12-14T00:41:40.887Z,13.87
2022-12-14T00:44:27.106Z,14.13
2022-12-14T00:47:13.736Z,13.37
2022-12-14T00:49:59.838Z,12.20
2022-12-14T00:52:46.125Z,9.03
2022-12-14T00:55:40.208Z,14.87
2022-12-14T00:58:27.893Z,13.70
2022-12-14T01:01:14.597Z,11.70
2022-12-14T01:04:19.818Z,12.57
2022-12-14T01:07:06.313Z,11.77
2022-12-14T01:09:52.556Z,13.13
2022-12-14T01:12:39.754Z,12.43
2022-12-14T01:15:25.955Z,10.80
2022-12-14T01:18:12.968Z,15.87
2022-12-14T01:21:26.151Z,10.33
2022-12-14T01:24:13.050Z,12.00
2022-12-14T01:26:59.519Z,9.40
2022-12-14T01:29:45.870Z,9.23
2022-12-14T01:32:34.176Z,11.10
2022-12-14T01:35:20.742Z,10.53
2022-12-14T01:38:07.053Z,13.20
2022-12-14T01:40:57.710Z,12.43
2022-12-14T01:43:48.792Z,11.87
2022-12-14T01:46:45.497Z,14.73
2022-12-14T01:49:37.969Z,11.83
2022-12-14T01:52:27.430Z,16.70
2022-12-14T01:55:24.655Z,11.83
2022-12-14T01:58:31.034Z,13.90
2022-12-14T02:01:22.438Z,11.47
2022-12-14T02:04:10.337Z,10.07
2022-12-14T02:07:01.097Z,10.93
2022-12-14T02:09:48.434Z,11.97
2022-12-14T02:12:44.209Z,11.70
2022-12-14T02:15:31.692Z,10.37
2022-12-14T02:18:23.715Z,12.13
2022-12-14T02:21:48.469Z,13.20
2022-12-14T02:24:58.605Z,13.93
2022-12-14T02:28:09.801Z,11.73
2022-12-14T02:31:10.386Z,10.10
2022-12-14T02:34:21.084Z,11.93
2022-12-14T02:37:29.607Z,11.60
2022-12-14T02:40:57.436Z,13.53
2022-12-14T02:43:50.890Z,10.87
2022-12-14T02:46:37.406Z,10.20
2022-12-14T02:49:36.722Z,20.03
2022-12-14T02:52:36.047Z,15.43
2022-12-14T02:55:36.791Z,10.77
2022-12-14T02:58:33.415Z,12.07
2022-12-14T03:01:25.104Z,12.77
2022-12-14T03:04:11.726Z,13.80
2022-12-14T03:07:22.304Z,12.03
2022-12-14T03:10:34.213Z,10.57
2022-12-14T03:13:25.885Z,10.47
2022-12-14T03:16:22.027Z,11.27
2022-12-14T03:19:26.668Z,8.97
2022-12-14T03:22:41.952Z,10.87
2022-12-14T03:25:58.668Z,10.53
2022-12-14T03:29:04.195Z,14.67
2022-12-14T03:31:55.860Z,12.77
2022-12-14T03:35:15.303Z,12.03
2022-12-14T03:38:28.681Z,9.90
2022-12-14T03:41:40.336Z,11.63
2022-12-14T03:44:49.373Z,11.70
2022-12-14T03:48:05.838Z,15.37
2022-12-14T03:51:03.974Z,10.17
2022-12-14T03:53:59.229Z,11.17
2022-12-14T03:57:21.003Z,11.47
2022-12-14T04:00:13.987Z,11.60
2022-12-14T04:03:28.092Z,12.30
2022-12-14T04:06:33.018Z,10.83
2022-12-14T04:09:19.166Z,14.53
2022-12-14T04:12:28.194Z,12.47
2022-12-14T04:15:47.950Z,11.40
2022-12-14T04:19:00.566Z,15.57
2022-12-14T04:21:59.084Z,14.57
2022-12-14T04:25:12.286Z,12.43
2022-12-14T04:28:06.053Z,12.53
2022-12-14T04:30:52.640Z,14.43
2022-12-14T04:33:49.282Z,13.90
2022-12-14T04:36:46.833Z,13.53
2022-12-14T04:39:48.888Z,11.67
2022-12-14T04:42:43.696Z,10.87
2022-12-14T04:45:35.066Z,11.23
2022-12-14T04:48:39.158Z,12.13
2022-12-14T04:51:30.238Z,14.27
2022-12-14T04:54:31.317Z,16.57
2022-12-14T04:57:23.593Z,13.70
2022-12-14T05:00:10.617Z,11.97
2022-12-14T05:03:27.617Z,12.93
2022-12-14T05:06:23.386Z,14.80
2022-12-14T05:09:12.534Z,14.60
2022-12-14T05:12:05.925Z,15.73
2022-12-14T05:15:01.025Z,15.40
2022-12-14T05:17:47.861Z,12.77
2022-12-14T05:20:34.283Z,13.63
2022-12-14T05:23:20.591Z,12.83
2022-12-14T05:26:06.875Z,13.27
2022-12-14T05:28:53.144Z,14.57
2022-12-14T05:31:39.740Z,11.87
2022-12-14T05:34:26.295Z,12.73
2022-12-14T05:37:17.941Z,16.90
2022-12-14T05:40:05.365Z,13.37
2022-12-14T05:42:55.770Z,16.67
2022-12-14T05:45:42.450Z,13.37
2022-12-14T05:48:29.777Z,16.23
2022-12-14T05:51:16.042Z,16.60
2022-12-14T05:54:02.630Z,15.20
2022-12-14T05:56:48.963Z,13.17
2022-12-14T05:59:35.503Z,21.53
2022-12-14T06:02:21.691Z,16.60
2022-12-14T06:05:08.720Z,17.00
2022-12-14T06:07:54.982Z,19.40
2022-12-14T06:10:41.173Z,18.53
2022-12-14T06:13:27.610Z,15.77
2022-12-14T06:16:20.515Z,23.73
2022-12-14T06:19:07.747Z,20.93
2022-12-14T06:21:53.957Z,19.53
2022-12-14T06:24:40.274Z,17.90
2022-12-14T06:27:26.416Z,18.10
2022-12-14T06:30:15.424Z,20.27
2022-12-14T06:33:02.069Z,22.63
2022-12-14T06:35:48.614Z,21.97
2022-12-14T06:38:35.285Z,18.23
2022-12-14T06:41:24.217Z,23.67
2022-12-14T06:44:14.140Z,18.67
2022-12-14T06:47:00.753Z,23.03
2022-12-14T06:49:47.351Z,22.70
2022-12-14T06:52:35.192Z,19.77
2022-12-14T06:55:22.275Z,18.67
2022-12-14T06:58:15.783Z,20.87
2022-12-14T07:01:04.325Z,17.53
2022-12-14T07:03:56.365Z,23.27
2022-12-14T07:06:42.813Z,21.20
2022-12-14T07:09:29.484Z,17.87
2022-12-14T07:12:15.662Z,20.43
2022-12-14T07:15:02.257Z,20.17
2022-12-14T07:17:48.659Z,20.20
2022-12-14T07:20:35.023Z,22.53
2022-12-14T07:23:24.771Z,24.20
2022-12-14T07:26:19.747Z,21.50
2022-12-14T07:29:06.652Z,18.17
2022-12-14T07:31:53.095Z,18.47
2022-12-14T07:34:40.547Z,19.10
2022-12-14T07:37:27.243Z,18.03
2022-12-14T07:40:13.857Z,23.47
2022-12-14T07:43:00.047Z,19.63
2022-12-14T07:45:46.262Z,20.03
2022-12-14T07:48:33.924Z,21.03
2022-12-14T07:51:26.976Z,18.87
2022-12-14T07:54:13.583Z,22.33
2022-12-14T07:56:59.859Z,23.90
2022-12-14T07:59:46.048Z,18.63
2022-12-14T08:02:32.579Z,17.70
2022-12-14T08:05:19.114Z,20.13
2022-12-14T08:08:05.476Z,21.77
2022-12-14T08:10:51.800Z,20.87
2022-12-14T08:13:42.973Z,19.87
2022-12-14T08:16:29.834Z,21.93
2022-12-14T08:19:17.789Z,24.47
2022-12-14T08:22:04.099Z,24.63
2022-12-14T08:24:50.438Z,22.10
2022-12-14T08:27:36.894Z,23.17
2022-12-14T08:30:24.107Z,20.67
2022-12-14T08:33:10.773Z,19.30
2022-12-14T08:35:57.008Z,18.20
2022-12-14T08:38:43.515Z,24.07
2022-12-14T08:41:30.196Z,20.77
2022-12-14T08:44:17.416Z,27.67
2022-12-14T08:47:03.632Z,25.80
2022-12-14T08:49:50.099Z,23.77
2022-12-14T08:52:36.754Z,23.20
2022-12-14T08:55:28.239Z,24.20
2022-12-14T08:58:16.454Z,20.67
2022-12-14T09:01:06.818Z,22.03
2022-12-14T09:03:53.386Z,20.67
2022-12-14T09:06:39.706Z,21.90
2022-12-14T09:09:26.058Z,23.00
2022-12-14T09:12:12.308Z,27.23
2022-12-14T09:14:58.552Z,27.07
2022-12-14T09:17:45.125Z,37.83
2022-12-14T09:20:31.520Z,21.67
2022-12-14T09:23:17.730Z,23.63
2022-12-14T09:26:13.018Z,22.20
2022-12-14T09:28:59.307Z,21.97
2022-12-14T09:31:48.087Z,23.00
2022-12-14T09:34:34.410Z,27.10
2022-12-14T09:37:20.659Z,27.57
2022-12-14T09:40:07.917Z,32.63
2022-12-14T09:43:01.420Z,26.30
2022-12-14T09:45:53.375Z,25.27
2022-12-14T09:48:42.359Z,27.13
2022-12-14T09:51:35.590Z,24.53
2022-12-14T09:54:34.832Z,20.90
2022-12-14T09:57:30.160Z,22.00
2022-12-14T10:00:18.988Z,26.87
2022-12-14T10:03:17.722Z,25.63
2022-12-14T10:06:23.642Z,23.30
2022-12-14T10:09:32.587Z,26.53
2022-12-14T10:12:57.018Z,22.47
2022-12-14T10:15:50.683Z,29.03
2022-12-14T10:19:14.764Z,26.23
2022-12-14T10:22:06.825Z,30.27
2022-12-14T10:25:07.490Z,33.27
2022-12-14T10:28:13.091Z,27.70
2022-12-14T10:31:02.050Z,25.57
2022-12-14T10:33:48.343Z,25.73
2022-12-14T10:36:44.776Z,27.50
2022-12-14T10:39:37.518Z,28.00
2022-12-14T10:42:49.335Z,24.53
2022-12-14T10:45:48.268Z,25.70
2022-12-14T10:49:06.235Z,22.13
2022-12-14T10:52:19.145Z,20.70
2022-12-14T10:55:14.330Z,25.00
2022-12-14T10:58:01.341Z,21.60
2022-12-14T11:00:53.865Z,26.97
2022-12-14T11:03:42.366Z,26.43
2022-12-14T11:06:28.855Z,24.60
2022-12-14T11:09:23.715Z,24.27
2022-12-14T11:12:13.060Z,27.17
2022-12-14T11:15:06.467Z,31.67
2022-12-14T11:18:02.422Z,22.87
2022-12-14T11:20:51.760Z,28.20
2022-12-14T11:23:45.071Z,23.37
2022-12-14T11:26:35.419Z,30.40
2022-12-14T11:29:32.808Z,30.17
2022-12-14T11:32:23.955Z,26.53
2022-12-14T11:35:17.093Z,23.70
2022-12-14T11:38:04.387Z,26.50
2022-12-14T11:40:51.097Z,25.40
2022-12-14T11:43:40.238Z,22.00
2022-12-14T11:46:45.407Z,29.03
2022-12-14T11:49:37.800Z,24.90
2022-12-14T11:52:38.040Z,26.00
2022-12-14T11:55:27.799Z,25.23
2022-12-14T11:58:29.706Z,23.80
2022-12-14T12:01:19.990Z,24.30
2022-12-14T12:04:14.757Z,26.00
2022-12-14T12:07:22.949Z,28.77
2022-12-14T12:10:12.439Z,25.73
2022-12-14T12:13:04.875Z,58.80
2022-12-14T12:15:56.654Z,43.97
2022-12-14T12:18:46.769Z,47.93
2022-12-14T12:21:40.725Z,26.07
2022-12-14T12:24:38.775Z,26.43
2022-12-14T12:27:33.076Z,33.07
2022-12-14T12:30:28.608Z,26.93
2022-12-14T12:33:20.599Z,43.20
2022-12-14T12:36:07.917Z,27.67
2022-12-14T12:39:12.686Z,45.17
2022-12-14T12:42:17.759Z,29.43
2022-12-14T12:45:15.808Z,28.70
2022-12-14T12:48:16.513Z,26.47
2022-12-14T12:51:10.280Z,30.80
2022-12-14T12:54:01.291Z,39.27
2022-12-14T12:56:53.601Z,40.47
2022-12-14T12:59:47.037Z,32.57
2022-12-14T13:02:43.635Z,70.07
2022-12-14T13:05:48.665Z,47.93
2022-12-14T13:08:40.031Z,35.30
2022-12-14T13:11:31.488Z,30.47
2022-12-14T13:14:23.532Z,29.60
2022-12-14T13:17:37.489Z,25.00
2022-12-14T13:20:32.515Z,29.37
2022-12-14T13:26:57.808Z,28.00
2022-12-14T13:30:03.661Z,25.77
2022-12-14T13:33:01.921Z,28.20
2022-12-14T13:36:16.219Z,29.63
2022-12-14T13:39:29.755Z,22.47
2022-12-14T13:42:26.243Z,28.57
2022-12-14T13:45:21.945Z,26.17
2022-12-14T13:48:24.373Z,28.27
2022-12-14T13:51:28.490Z,27.40
2022-12-14T13:54:19.800Z,28.47
2022-12-14T13:57:21.448Z,21.57
2022-12-14T14:00:38.519Z,24.00
2022-12-14T14:03:34.197Z,26.90
2022-12-14T14:06:35.813Z,22.90
2022-12-14T14:09:34.535Z,23.40
2022-12-14T14:12:24.119Z,24.73
2022-12-14T14:16:18.940Z,28.37
2022-12-14T14:19:12.643Z,27.27
2022-12-14T14:22:23.238Z,25.17
2022-12-14T14:25:39.506Z,36.73
2022-12-14T14:28:29.892Z,23.70
2022-12-14T14:31:16.319Z,33.30
2022-12-14T14:34:03.002Z,22.80
2022-12-14T14:36:50.096Z,30.93
2022-12-14T14:39:56.130Z,30.57
2022-12-14T14:42:51.841Z,27.00
2022-12-14T14:45:52.466Z,24.73
2022-12-14T14:48:50.180Z,31.40
2022-12-14T14:51:36.939Z,25.97
2022-12-14T14:57:57.304Z,29.77
2022-12-14T15:01:00.223Z,29.20
2022-12-14T15:03:55.465Z,26.67
2022-12-14T15:06:47.118Z,29.23
2022-12-14T15:09:39.205Z,22.73
2022-12-14T15:12:52.812Z,28.30
2022-12-14T15:15:47.633Z,27.30
2022-12-14T15:18:34.209Z,35.80
2022-12-14T15:21:20.653Z,22.80
2022-12-14T15:24:13.237Z,23.30
2022-12-14T15:27:00.343Z,25.77
2022-12-14T15:29:49.585Z,24.67
2022-12-14T15:32:39.746Z,24.07
2022-12-14T15:35:42.522Z,30.43
2022-12-14T15:38:32.295Z,30.13
2022-12-14T15:41:20.842Z,26.70
2022-12-14T15:44:22.014Z,27.20
2022-12-14T15:47:21.892Z,29.57
2022-12-14T15:50:23.289Z,29.30
2022-12-14T15:53:29.026Z,32.50
2022-12-14T15:56:30.425Z,30.70
2022-12-14T15:59:31.128Z,28.03
2022-12-14T16:02:31.163Z,25.17
2022-12-14T16:05:21.750Z,22.27
2022-12-14T16:08:10.461Z,26.37
2022-12-14T16:11:01.173Z,24.67
2022-12-14T16:13:49.367Z,30.80
2022-12-14T16:16:35.757Z,25.60
2022-12-14T16:19:28.290Z,46.13
2022-12-14T16:22:23.303Z,34.90
2022-12-14T16:25:10.094Z,25.63
2022-12-14T16:27:56.705Z,26.87
2022-12-14T16:30:57.533Z,25.80
2022-12-14T16:33:44.496Z,28.37
2022-12-14T16:36:34.250Z,21.37
2022-12-14T16:39:23.167Z,27.00
2022-12-14T16:42:19.482Z,25.77
2022-12-14T16:45:06.475Z,27.17
2022-12-14T16:48:13.129Z,24.93
2022-12-14T16:51:51.287Z,29.23
2022-12-14T16:54:35.463Z,26.53
2022-12-14T16:57:24.240Z,27.23
2022-12-14T17:00:37.738Z,30.67
2022-12-14T17:03:24.480Z,38.63
2022-12-14T17:06:22.928Z,30.27
2022-12-14T17:09:20.041Z,24.63
2022-12-14T17:12:13.539Z,24.53
2022-12-14T17:15:00.175Z,24.03
2022-12-14T17:17:49.671Z,26.77
2022-12-14T17:20:36.929Z,29.43
2022-12-14T17:23:24.083Z,30.23
2022-12-14T17:26:19.646Z,35.53
2022-12-14T17:29:11.895Z,28.40
2022-12-14T17:32:01.271Z,27.67
2022-12-14T17:34:47.917Z,26.20
2022-12-14T17:37:36.494Z,28.27
2022-12-14T17:40:23.060Z,28.83
2022-12-14T17:43:15.441Z,22.97
2022-12-14T17:46:03.205Z,26.57
2022-12-14T17:48:49.963Z,24.77
2022-12-14T17:51:41.791Z,29.97
2022-12-14T17:54:29.286Z,26.17
2022-12-14T17:57:18.679Z,34.77
2022-12-14T18:00:24.088Z,28.70
2022-12-14T18:03:12.540Z,29.00
2022-12-14T18:05:59.775Z,22.50
2022-12-14T18:08:48.656Z,27.70
2022-12-14T18:11:34.971Z,32.70
2022-12-14T18:14:21.111Z,30.47
2022-12-14T18:17:11.451Z,97.87
2022-12-14T18:19:57.890Z,54.93
2022-12-14T18:22:49.787Z,26.30
2022-12-14T18:25:40.901Z,26.57
2022-12-14T18:28:27.129Z,28.53
2022-12-14T18:31:40.262Z,32.43
2022-12-14T18:34:26.891Z,27.07
2022-12-14T18:37:13.225Z,25.07
2022-12-14T18:39:59.427Z,30.53
2022-12-14T18:42:46.478Z,26.87
2022-12-14T18:45:34.605Z,31.03
2022-12-14T18:48:22.109Z,26.90
2022-12-14T18:51:13.955Z,27.17
2022-12-14T18:54:00.429Z,28.83
2022-12-14T18:56:46.831Z,28.57
2022-12-14T18:59:42.149Z,24.27
2022-12-14T19:02:28.947Z,25.53
2022-12-14T19:05:16.901Z,35.20
2022-12-14T19:08:03.916Z,29.90
2022-12-14T19:10:50.357Z,39.90
2022-12-14T19:13:36.596Z,24.07
2022-12-14T19:16:23.339Z,28.93
2022-12-14T19:19:09.633Z,30.23
2022-12-14T19:21:56.260Z,25.40
2022-12-14T19:24:45.337Z,33.40
2022-12-14T19:28:11.613Z,54.43
2022-12-14T19:30:44.331Z,39.53
2022-12-14T19:33:31.611Z,40.13
2022-12-14T19:36:18.342Z,36.33
2022-12-14T19:39:05.304Z,72.17
2022-12-14T19:41:54.335Z,32.33
2022-12-14T19:44:40.909Z,38.27
2022-12-14T19:47:27.045Z,34.67
2022-12-14T19:50:14.823Z,28.90
2022-12-14T19:53:01.112Z,40.13
2022-12-14T19:55:53.056Z,39.30
2022-12-14T19:58:40.137Z,33.93
2022-12-14T20:01:26.572Z,25.20
2022-12-14T20:04:13.209Z,25.53
2022-12-14T20:06:59.499Z,34.93
2022-12-14T20:09:45.827Z,29.10
2022-12-14T20:12:35.263Z,30.53
2022-12-14T20:15:21.451Z,28.77
2022-12-14T20:18:10.116Z,25.13
2022-12-14T20:21:08.226Z,30.33
2022-12-14T20:23:54.450Z,25.40
2022-12-14T20:26:40.983Z,21.63
2022-12-14T20:29:27.574Z,24.20
2022-12-14T20:32:13.837Z,23.87
2022-12-14T20:35:00.421Z,23.53
2022-12-14T20:37:46.681Z,26.83
2022-12-14T20:40:38.662Z,32.33
2022-12-14T20:43:25.486Z,24.83
2022-12-14T20:46:28.119Z,41.37
2022-12-14T20:49:19.876Z,29.17
2022-12-14T20:52:06.434Z,39.07
2022-12-14T20:54:53.521Z,39.77
2022-12-14T20:57:39.745Z,30.00
2022-12-14T21:00:26.603Z,21.23
2022-12-14T21:03:12.996Z,22.57
2022-12-14T21:06:00.090Z,24.33
2022-12-14T21:09:04.707Z,24.53
2022-12-14T21:12:09.995Z,19.37
2022-12-14T21:14:56.732Z,26.40
2022-12-14T21:17:43.447Z,23.07
2022-12-14T21:20:29.886Z,26.77
2022-12-14T21:23:16.175Z,38.63
2022-12-14T21:26:06.056Z,42.87
2022-12-14T21:28:54.143Z,37.97
2022-12-14T21:31:43.726Z,28.50
2022-12-14T21:34:30.510Z,28.57
2022-12-14T21:37:17.512Z,24.20
2022-12-14T21:40:04.484Z,40.43
2022-12-14T21:42:50.976Z,50.23
2022-12-14T21:45:37.715Z,37.60
2022-12-14T21:48:24.233Z,29.63
2022-12-14T21:51:16.449Z,58.93
2022-12-14T21:54:03.611Z,29.53
2022-12-14T21:57:09.267Z,27.90
2022-12-14T21:59:55.936Z,27.03
2022-12-14T22:02:42.882Z,21.60
2022-12-14T22:05:29.251Z,20.80
2022-12-14T22:08:15.760Z,26.47
2022-12-14T22:11:03.368Z,22.87
2022-12-14T22:13:49.621Z,26.43
2022-12-14T22:16:35.900Z,28.33
2022-12-14T22:19:24.186Z,23.07
2022-12-14T22:22:15.317Z,28.83
2022-12-14T22:25:01.702Z,27.83
2022-12-14T22:27:49.631Z,23.53
2022-12-14T22:30:36.608Z,27.03
2022-12-14T22:33:23.211Z,25.53
2022-12-14T22:36:09.655Z,19.17
2022-12-14T22:38:57.697Z,28.93
2022-12-14T22:41:44.542Z,31.93
2022-12-14T22:44:30.983Z,35.57
2022-12-14T22:47:17.601Z,31.90
2022-12-14T22:50:04.561Z,29.87
2022-12-14T22:52:50.812Z,32.70
2022-12-14T22:55:38.650Z,36.10
2022-12-14T22:58:27.167Z,35.90
2022-12-14T23:01:14.193Z,32.97
2022-12-14T23:04:01.282Z,24.27
2022-12-14T23:06:47.721Z,24.93
2022-12-14T23:09:52.814Z,27.60
2022-12-14T23:12:58.035Z,23.93
2022-12-14T23:16:02.812Z,29.17
2022-12-14T23:19:07.554Z,29.67
2022-12-14T23:22:12.307Z,28.33
2022-12-14T23:25:17.263Z,25.70
2022-12-14T23:28:23.866Z,24.17
2022-12-14T23:31:28.531Z,26.47
2022-12-14T23:34:33.728Z,26.60
2022-12-14T23:37:38.835Z,25.70
2022-12-14T23:40:43.841Z,27.17
2022-12-14T23:43:48.656Z,29.40
2022-12-14T23:46:53.785Z,23.83
2022-12-14T23:49:58.496Z,24.43
2022-12-14T23:53:03.476Z,31.70
2022-12-14T23:56:08.306Z,27.83
2022-12-14T23:59:14.147Z,26.10
